createdAt,value
2016-09-09T10:59:17.542Z,30
2016-09-09T11:00:17.035Z,30
2016-09-09T11:01:17.475Z,30
2016-09-09T11:02:17.767Z,30
2016-09-09T11:03:16.999Z,30
2016-09-09T11:04:32.009Z,30
2016-09-09T11:05:16.933Z,30
2016-09-09T11:06:32.644Z,35
2016-09-09T11:07:17.368Z,35
2016-09-09T11:10:01.271Z,35
2016-09-09T11:10:32.050Z,35
2016-09-09T11:11:17.470Z,40
2016-09-09T11:12:16.814Z,40
2016-09-09T11:13:16.771Z,40
2016-09-09T11:14:16.857Z,40
2016-09-09T11:15:32.130Z,40
2016-09-09T11:16:16.969Z,40
2016-09-09T11:17:16.699Z,40
2016-09-09T11:18:16.607Z,40
2016-09-09T11:19:17.112Z,30
2016-09-09T11:20:16.638Z,40
2016-09-09T11:21:17.399Z,40
2016-09-09T11:22:16.609Z,40
2016-09-09T11:23:16.854Z,40
2016-09-09T11:24:17.094Z,40
2016-09-09T11:25:16.689Z,40
2016-09-09T11:26:23.025Z,40
2016-09-09T11:27:16.733Z,40
2016-09-09T11:28:16.397Z,40
2016-09-09T11:29:16.392Z,35
2016-09-09T11:30:16.457Z,35
2016-09-09T11:31:17.083Z,40
2016-09-09T11:35:48.542Z,40
2016-09-09T11:36:04.932Z,40
2016-09-09T11:38:04.864Z,40
2016-09-09T11:40:19.432Z,40
2016-09-09T11:41:32.224Z,40
2016-09-09T11:43:05.009Z,40
2016-09-09T11:44:18.771Z,40
2016-09-09T11:46:12.930Z,45
2016-09-09T11:47:32.748Z,50
2016-09-09T11:48:19.635Z,70
2016-09-09T11:49:34.103Z,45
2016-09-09T11:52:20.585Z,45
2016-09-09T11:54:05.946Z,30
2016-09-09T11:55:04.451Z,45
2016-09-09T11:56:34.609Z,45
2016-09-09T11:57:23.320Z,50
2016-09-09T11:58:03.289Z,50
2016-09-09T12:01:48.802Z,50
2016-09-09T12:02:49.046Z,35
2016-09-09T12:03:48.748Z,45
2016-09-09T12:04:48.313Z,40
2016-09-09T12:05:48.389Z,65
2016-09-09T12:06:48.971Z,60
2016-09-09T12:07:48.302Z,45
2016-09-09T12:08:49.905Z,35
2016-09-09T12:09:48.417Z,35
2016-09-09T12:10:48.821Z,30
2016-09-09T12:11:48.284Z,35
2016-09-09T12:12:48.303Z,35
2016-09-09T12:13:48.043Z,40
2016-09-09T12:15:17.543Z,45
2016-09-09T12:15:48.022Z,50
2016-09-09T12:16:48.783Z,50
2016-09-09T12:17:48.045Z,50
2016-09-09T12:18:49.576Z,45
2016-09-09T12:20:02.701Z,45
2016-09-09T12:20:48.605Z,50
2016-09-09T12:22:03.729Z,50
2016-09-09T12:22:47.968Z,45
2016-09-09T12:23:48.227Z,45
2016-09-09T12:24:49.631Z,45
2016-09-09T12:25:50.124Z,45
2016-09-09T12:26:49.269Z,50
2016-09-09T12:27:48.065Z,70
2016-09-09T12:28:47.838Z,70
2016-09-09T12:29:47.678Z,55
2016-09-09T12:30:47.784Z,50
2016-09-09T12:31:48.112Z,50
2016-09-09T12:32:47.977Z,45
2016-09-09T12:34:06.537Z,45
2016-09-09T12:34:47.812Z,45
2016-09-09T12:35:47.918Z,50
2016-09-09T12:36:47.521Z,55
2016-09-09T12:37:47.469Z,55
2016-09-09T12:38:47.439Z,60
2016-09-09T12:39:47.734Z,70
2016-09-09T12:40:47.459Z,185
2016-09-09T12:41:47.378Z,130
2016-09-09T12:42:47.347Z,50
2016-09-09T12:43:47.350Z,50
2016-09-09T12:45:02.289Z,50
2016-09-09T12:45:48.009Z,50
2016-09-09T12:46:47.294Z,50
2016-09-09T12:47:47.805Z,55
2016-09-09T12:48:47.256Z,55
2016-09-09T12:49:47.263Z,70
2016-09-09T12:50:47.232Z,50
2016-09-09T12:51:47.567Z,50
2016-09-09T12:52:47.192Z,50
2016-09-09T12:54:47.464Z,50
2016-09-09T12:55:47.386Z,50
2016-09-09T12:56:47.744Z,50
2016-09-09T12:57:47.703Z,50
2016-09-09T12:58:47.004Z,50
2016-09-09T12:59:46.987Z,55
2016-09-09T13:00:47.683Z,60
2016-09-09T13:01:47.348Z,55
2016-09-09T13:02:47.347Z,50
2016-09-09T13:03:47.223Z,50
2016-09-09T13:04:46.867Z,50
2016-09-09T13:05:46.861Z,50
2016-09-09T13:07:01.904Z,50
2016-09-09T13:07:46.795Z,50
2016-09-09T13:08:47.210Z,50
2016-09-09T13:09:47.413Z,50
2016-09-09T13:10:47.630Z,50
2016-09-09T13:11:47.142Z,50
2016-09-09T13:12:46.797Z,50
2016-09-09T13:13:47.901Z,50
2016-09-09T13:14:46.664Z,55
2016-09-09T13:15:46.994Z,55
2016-09-09T13:16:46.662Z,55
2016-09-09T13:17:46.616Z,60
2016-09-09T13:19:01.665Z,65
2016-09-09T13:19:46.587Z,65
2016-09-09T13:20:46.590Z,55
2016-09-09T13:21:46.865Z,55
2016-09-09T13:22:47.402Z,65
2016-09-09T13:23:46.672Z,65
2016-09-09T13:24:46.489Z,75
2016-09-09T13:25:47.164Z,70
2016-09-09T13:26:46.421Z,60
2016-09-09T13:28:01.064Z,100
2016-09-09T13:28:46.668Z,105
2016-09-09T13:29:46.723Z,75
2016-09-09T13:30:46.724Z,70
2016-09-09T13:31:46.289Z,65
2016-09-09T13:32:46.288Z,55
2016-09-09T13:33:46.291Z,60
2016-09-09T13:34:46.522Z,60
2016-09-09T13:35:46.244Z,55
2016-09-09T13:36:46.207Z,65
2016-09-09T13:37:46.888Z,80
2016-09-09T13:40:39.892Z,70
2016-09-09T13:40:55.438Z,70
2016-09-09T13:41:56.618Z,60
2016-09-09T13:42:55.394Z,65
2016-09-09T13:43:55.821Z,90
2016-09-09T13:44:55.354Z,95
2016-09-09T13:45:55.597Z,95
2016-09-09T13:46:55.309Z,110
2016-09-09T13:47:55.426Z,100
2016-09-09T13:48:55.318Z,75
2016-09-09T13:51:18.466Z,65
2016-09-09T13:52:18.681Z,100
2016-09-09T13:53:18.341Z,145
2016-09-09T13:54:18.459Z,120
2016-09-09T13:55:18.392Z,110
2016-09-09T13:56:18.292Z,110
2016-09-09T13:57:18.648Z,100
2016-09-09T13:58:33.254Z,130
2016-09-09T13:59:18.226Z,125
2016-09-09T14:00:24.590Z,110
2016-09-09T14:01:18.257Z,100
2016-09-09T14:03:18.179Z,150
2016-09-09T14:04:24.466Z,140
2016-09-09T14:05:18.139Z,100
2016-09-09T14:06:18.091Z,75
2016-09-09T14:07:18.070Z,115
2016-09-09T14:08:18.056Z,160
2016-09-09T14:09:18.036Z,140
2016-09-09T14:10:18.352Z,95
2016-09-09T14:11:32.805Z,60
2016-09-09T14:12:18.157Z,55
2016-09-09T14:13:32.749Z,85
2016-09-09T14:14:17.970Z,175
2016-09-09T14:15:17.951Z,160
2016-09-09T14:16:19.190Z,90
2016-09-09T14:17:17.930Z,80
2016-09-09T14:19:18.403Z,55
2016-09-09T14:21:18.170Z,75
2016-09-09T14:22:32.800Z,170
2016-09-09T14:23:17.804Z,125
2016-09-09T14:24:34.117Z,50
2016-09-09T14:25:17.905Z,50
2016-09-09T14:26:18.327Z,80
2016-09-09T14:27:17.754Z,80
2016-09-09T14:28:18.056Z,50
2016-09-09T14:29:17.782Z,50
2016-09-09T14:30:18.092Z,70
2016-09-09T14:31:32.582Z,85
2016-09-09T14:32:17.635Z,50
2016-09-09T14:37:31.735Z,40
2016-09-09T14:38:46.559Z,40
2016-09-09T14:41:20.117Z,90
2016-09-09T14:41:52.567Z,105
2016-09-09T14:43:34.954Z,165
2016-09-09T14:43:54.465Z,160
2016-09-09T14:45:06.360Z,65
2016-09-09T14:49:51.817Z,40
2016-09-09T14:54:47.645Z,35
2016-09-09T14:56:17.051Z,115
2016-09-09T14:57:02.913Z,80
2016-09-09T14:57:34.291Z,40
2016-09-09T14:58:32.940Z,45
2016-09-09T15:00:03.541Z,35
2016-09-09T15:00:34.337Z,35
2016-09-09T15:01:51.561Z,330
2016-09-09T15:03:34.359Z,615
2016-09-09T15:04:33.746Z,160
2016-09-09T15:06:48.612Z,35
2016-09-09T15:07:52.773Z,35
2016-09-09T15:09:34.036Z,35
2016-09-09T15:11:02.486Z,50
2016-09-09T15:11:48.384Z,110
2016-09-09T15:16:02.443Z,85
2016-09-09T15:16:33.583Z,45
2016-09-09T15:18:02.486Z,25
2016-09-09T15:18:50.681Z,25
2016-09-09T15:21:12.414Z,25
2016-09-09T15:22:10.007Z,25
2016-09-09T15:23:16.666Z,30
2016-09-09T15:23:56.660Z,25
2016-09-09T15:25:58.452Z,25
2016-09-09T15:27:57.846Z,25
2016-09-09T19:21:28.047Z,0
2016-09-09T19:22:27.742Z,0
2016-09-09T19:23:13.049Z,0
2016-09-09T19:24:25.731Z,0
2016-09-09T19:25:41.365Z,0
2016-09-09T19:27:29.057Z,0
2016-09-09T19:29:25.803Z,0
2016-09-09T19:30:13.901Z,0
2016-09-09T19:31:27.802Z,0
2016-09-09T19:32:30.017Z,0
2016-09-09T19:33:12.819Z,0
2016-09-09T19:34:35.782Z,0
2016-09-09T19:35:40.531Z,0
2016-09-09T19:36:12.034Z,0
2016-09-09T19:37:25.991Z,0
2016-09-09T19:38:15.855Z,0
2016-09-09T19:39:42.931Z,0
2016-09-09T19:42:40.272Z,0
2016-09-09T19:43:11.535Z,0
2016-09-09T19:44:25.162Z,0
2016-09-09T19:47:17.457Z,0
2016-09-09T19:47:50.922Z,0
2016-09-09T19:48:48.229Z,0
2016-09-09T19:52:02.960Z,0
2016-09-09T19:52:36.379Z,0
2016-09-09T19:55:47.450Z,0
2016-09-09T19:56:34.214Z,0
2016-09-09T19:57:49.558Z,0
2016-09-09T19:58:34.443Z,0
2016-09-09T20:03:50.646Z,0
2016-09-09T20:04:33.971Z,0
2016-09-09T20:05:50.477Z,0
2016-09-09T20:06:50.074Z,0
2016-09-09T20:07:33.085Z,0
2016-09-09T20:08:48.022Z,0
2016-09-09T20:09:35.620Z,0
2016-09-09T20:10:34.450Z,0
2016-09-09T20:12:01.543Z,0
2016-09-09T20:12:36.325Z,0
2016-09-09T20:14:34.186Z,0
2016-09-09T20:16:03.947Z,0
2016-09-09T20:18:02.337Z,0
2016-09-09T20:18:34.206Z,0
2016-09-09T20:19:34.297Z,0
2016-09-09T20:20:35.721Z,0
2016-09-09T20:21:49.450Z,0
2016-09-09T20:23:01.302Z,0
2016-09-09T20:23:34.129Z,0
2016-09-09T20:25:02.706Z,0
2016-09-09T20:26:34.985Z,0
2016-09-09T20:27:33.936Z,0
2016-09-09T20:28:33.016Z,0
2016-09-09T20:29:51.018Z,0
2016-09-09T20:30:33.909Z,0
2016-09-09T20:31:33.226Z,0
2016-09-09T20:32:35.485Z,0
2016-09-09T20:33:36.265Z,0
2016-09-09T20:34:48.427Z,0
2016-09-09T20:35:35.986Z,0
2016-09-09T20:37:16.783Z,0
2016-09-09T20:38:49.151Z,0
2016-09-09T20:39:34.782Z,0
2016-09-09T20:40:33.646Z,0
2016-09-09T20:41:35.038Z,0
2016-09-09T20:42:32.818Z,0
2016-09-09T20:43:48.232Z,0
2016-09-09T20:44:33.365Z,0
2016-09-09T20:45:50.022Z,0
2016-09-09T20:46:51.262Z,0
2016-09-09T20:47:37.601Z,0
2016-09-09T20:49:45.769Z,0
2016-09-09T20:50:33.224Z,0
2016-09-09T20:51:48.718Z,0
2016-09-09T20:52:33.116Z,0
2016-09-09T20:53:46.407Z,0
2016-09-09T20:54:34.807Z,0
2016-09-09T20:56:01.848Z,0
2016-09-09T20:56:48.852Z,0
2016-09-09T20:57:34.737Z,0
2016-09-09T20:58:48.592Z,0
2016-09-09T21:00:33.147Z,0
2016-09-09T21:01:46.733Z,0
2016-09-09T21:04:45.422Z,0
2016-09-09T21:05:31.510Z,0
2016-09-09T21:06:31.798Z,0
2016-09-09T21:08:00.685Z,0
2016-09-09T21:08:31.689Z,0
2016-09-09T21:09:32.503Z,0
2016-09-09T21:10:47.012Z,0
2016-09-09T21:11:48.269Z,0
2016-09-09T21:12:31.676Z,0
2016-09-09T21:13:32.024Z,0
2016-09-09T21:15:00.331Z,0
2016-09-09T21:16:47.158Z,0
2016-09-09T21:17:31.933Z,0
2016-09-09T21:18:32.158Z,0
2016-09-09T21:20:32.827Z,0
2016-09-09T21:21:32.486Z,0
2016-09-09T21:22:32.228Z,0
2016-09-09T21:23:45.856Z,0
2016-09-09T21:24:32.052Z,0
2016-09-09T21:25:31.836Z,0
2016-09-09T21:26:45.439Z,0
2016-09-09T21:27:32.899Z,0
2016-09-09T21:28:50.656Z,0
2016-09-09T21:29:46.879Z,0
2016-09-09T21:30:34.564Z,0
2016-09-09T21:31:31.196Z,0
2016-09-09T21:32:32.993Z,0
2016-09-09T21:33:31.386Z,0
2016-09-09T21:34:32.265Z,0
2016-09-09T21:35:31.216Z,0
2016-09-09T21:36:31.625Z,0
2016-09-09T21:37:45.543Z,0
2016-09-09T21:38:46.824Z,0
2016-09-09T21:39:34.243Z,0
2016-09-09T21:40:31.402Z,0
2016-09-09T21:42:01.288Z,0
2016-09-09T21:42:45.567Z,0
2016-09-09T21:43:47.397Z,0
2016-09-09T21:44:45.579Z,0
2016-09-09T21:45:31.227Z,0
2016-09-09T21:46:31.266Z,0
2016-09-09T21:47:59.608Z,0
2016-09-09T21:48:31.395Z,0
2016-09-09T21:49:44.686Z,0
2016-09-09T21:50:32.368Z,0
2016-09-09T21:51:31.200Z,0
2016-09-09T21:52:46.898Z,0
2016-09-09T21:54:45.718Z,0
2016-09-09T21:55:33.280Z,0
2016-09-09T21:57:13.238Z,0
2016-09-09T21:57:44.257Z,0
2016-09-09T21:58:45.405Z,0
2016-09-09T22:00:45.256Z,0
2016-09-09T22:02:44.661Z,0
2016-09-09T22:03:32.048Z,0
2016-09-09T22:04:45.634Z,0
2016-09-09T22:05:33.908Z,0
2016-09-09T22:06:59.022Z,0
2016-09-09T22:07:31.414Z,0
2016-09-09T22:08:45.897Z,0
2016-09-09T22:10:59.332Z,0
2016-09-09T22:12:33.291Z,0
2016-09-09T22:13:44.931Z,0
2016-09-09T22:14:46.359Z,0
2016-09-09T22:15:33.746Z,0
2016-09-09T22:18:33.526Z,0
2016-09-09T22:19:45.276Z,0
2016-09-09T22:20:32.247Z,0
2016-09-09T22:21:44.978Z,0
2016-09-09T22:22:59.316Z,0
2016-09-09T22:23:31.920Z,0
2016-09-09T22:24:32.425Z,0
2016-09-09T22:25:31.243Z,0
2016-09-09T22:26:44.966Z,0
2016-09-09T22:27:43.998Z,0
2016-09-09T22:28:29.415Z,0
2016-09-09T22:29:44.935Z,0
2016-09-09T22:30:30.726Z,0
2016-09-09T22:31:44.135Z,0
2016-09-09T22:32:29.737Z,0
2016-09-09T22:33:30.267Z,0
2016-09-09T22:34:30.528Z,0
2016-09-09T22:35:30.916Z,0
2016-09-09T22:36:44.206Z,0
2016-09-09T22:37:28.970Z,0
2016-09-09T22:38:31.573Z,0
2016-09-09T22:39:29.236Z,0
2016-09-09T22:40:31.246Z,0
2016-09-09T22:41:30.366Z,0
2016-09-09T22:42:29.338Z,0
2016-09-09T22:43:28.945Z,0
2016-09-09T22:44:45.113Z,0
2016-09-09T22:45:30.646Z,0
2016-09-09T22:46:29.537Z,0
2016-09-09T22:47:44.776Z,0
2016-09-09T22:48:29.834Z,0
2016-09-09T22:50:31.369Z,0
2016-09-09T22:51:31.996Z,0
2016-09-09T22:52:28.616Z,0
2016-09-09T22:53:30.209Z,0
2016-09-09T22:54:29.400Z,0
2016-09-09T22:55:28.918Z,0
2016-09-09T22:56:45.106Z,0
2016-09-09T22:57:28.666Z,0
2016-09-09T22:58:29.467Z,0
2016-09-09T22:59:29.417Z,0
2016-09-09T23:01:43.546Z,0
2016-09-09T23:02:29.457Z,0
2016-09-09T23:03:29.088Z,0
2016-09-09T23:04:42.455Z,0
2016-09-09T23:05:43.175Z,0
2016-09-09T23:07:29.436Z,0
2016-09-09T23:08:43.486Z,0
2016-09-09T23:09:30.749Z,0
2016-09-09T23:10:28.547Z,0
2016-09-09T23:11:42.836Z,0
2016-09-09T23:12:29.160Z,0
2016-09-09T23:13:28.767Z,0
2016-09-09T23:14:28.839Z,0
2016-09-09T23:16:42.938Z,0
2016-09-09T23:17:28.914Z,0
2016-09-09T23:18:42.686Z,0
2016-09-09T23:19:29.213Z,0
2016-09-09T23:20:28.912Z,0
2016-09-09T23:21:28.376Z,0
2016-09-09T23:22:28.656Z,0
2016-09-09T23:24:28.399Z,0
2016-09-09T23:25:43.465Z,0
2016-09-09T23:26:29.071Z,0
2016-09-09T23:27:28.706Z,0
2016-09-09T23:28:42.106Z,0
2016-09-09T23:29:28.305Z,0
2016-09-09T23:30:29.137Z,0
2016-09-09T23:31:29.367Z,0
2016-09-09T23:32:43.307Z,0
2016-09-09T23:33:29.041Z,0
2016-09-09T23:34:42.681Z,0
2016-09-09T23:35:28.355Z,0
2016-09-09T23:37:43.028Z,0
2016-09-09T23:38:28.633Z,0
2016-09-09T23:39:42.086Z,0
2016-09-09T23:40:28.376Z,0
2016-09-09T23:41:41.636Z,0
2016-09-09T23:42:42.129Z,0
2016-09-09T23:43:28.735Z,0
2016-09-09T23:44:28.450Z,0
2016-09-09T23:45:28.135Z,0
2016-09-09T23:46:42.253Z,0
2016-09-09T23:47:28.192Z,0
2016-09-09T23:48:28.048Z,0
2016-09-09T23:49:27.685Z,0
2016-09-09T23:50:41.785Z,0
2016-09-09T23:51:42.227Z,0
2016-09-09T23:52:28.229Z,0
2016-09-09T23:53:27.869Z,0
2016-09-09T23:54:28.605Z,0
2016-09-09T23:55:42.206Z,0
2016-09-09T23:56:27.697Z,0
2016-09-09T23:57:28.756Z,0
2016-09-09T23:58:41.861Z,0
2016-09-09T23:59:27.800Z,0
